logo
App data

Patrician III

Patrician III - sequel to the award winning game Patrician II - features advanced in-game AI, which adjusts its difficulty based on experience and ability. In this economic sandbox game you can gain wealth and power in multiple ways - what you will do with it is up to you.
Store | Hub | SteamDB
Developer: Ascaron Entertainment ltd. Publisher: Kalypso Media Digital
Genre: RPG, Simulation, Strategy
Languages: English
Tags: Strategy (57), Simulation (51), Trading (36), RPG (32), Economy (30), Management (29), Historical (28)
Category: Single-player
Release date: Nov 18, 2010
Price: $4.99
Score rank: 47% Userscore: 78% Old userscore: 78% Metascore: 75%
Owners: 100,000 .. 200,000
Followers: 1,432
Peak concurrent players yesterday: 30
YouTube stats: 4 views and 0 comments for videos uploaded last week, 0 new videos uploaded yesterday.
Playtime total: 12:38 (average) 00:17 (median)

Steam Spy is still in beta, so expect major bugs.

Owners data:

Access restricted.

This feature is only available to users with special access rights. Sorry.

If you want to proceed, you need to register or log in first and then back Steam Spy on Patreon. Look for Indie or Pro pledge.

Don't forget to use the same email as on Steam Spy!

Audience in 2 weeks:

Access restricted.

This feature is only available to users with special access rights. Sorry.

If you want to proceed, you need to register or log in first and then back Steam Spy on Patreon. Look for Indie or Pro pledge.

Don't forget to use the same email as on Steam Spy!

Peak daily concurrent players:

CCU data courtesy of SteamDB. Used with permission.

Hourly concurrent players:

Daily Twitch stats:

Hourly Twitch stats:

YouTube:

The views data is based on top 50 videos uploaded last week. Actual number of views might be more than the number shown.

The displayed number of videos uploaded yesterday is limited to 50, so if there were more videos uploaded, the number will still show 50.

If the game has commonly used word as its name (like "FEAR" or "Volume") its number of Youtube views might be wrong.

Games similar to this one:

# Game Release date
Price
Score rank
(Userscore / Metascore)
Owners
Players
Playtime (Median)
1 Lazerbait Oct 13, 2016 Free97% (97%)20,000 .. 50,0000%00:00 (00:00)
2 UFHO2 Jun 2, 2015 FreeN/A (N/A)20,000 .. 50,0000%00:00 (00:00)
3 Kohan II: Kings of War Sep 21, 2004 $9.9980% (91%/81%)20,000 .. 50,0004.35%00:21 (00:07)
4 Sacrifice Nov 1, 2000 $9.9980% (91%/89%)50,000 .. 100,0000%00:00 (00:00)
5 Quar: Battle for Gate 18 Apr 4, 2016 $19.9980% (91%)20,000 .. 50,0000%00:00 (00:00)
6 Company of Heroes: Opposing Fronts Sep 27, 2007 $19.9980% (91%/87%)2,000,000 .. 5,000,0000%00:00 (00:00)
7 Codename: Panzers, Phase Two Feb 18, 2016 $14.9980% (91%/80%)20,000 .. 50,0000%00:00 (00:00)
8 ThreadSpace: Hyperbol Jul 12, 2007 $9.99N/A (N/A)20,000 .. 50,0000%00:00 (00:00)
9 Khet 2.0 Oct 1, 2014 $9.9977% (90%)50,000 .. 100,0000%00:00 (00:00)
10 Swords and Soldiers HD Dec 2, 2010 $9.9977% (90%)100,000 .. 200,0000.04%00:03 (00:01)
11 Warhammer 40,000: Dawn of War – Winter Assault Jan 1, 2006 $12.9977% (90%)500,000 .. 1,000,0000.25%43:18 (28:38)
12 Decisive Campaigns: Case Blue May 7, 2015 $39.99N/A (N/A)0 .. 20,0000%00:00 (00:00)
13 MoonBase Commander Aug 13, 2002 $5.9977% (90%/77%)20,000 .. 50,0000%00:00 (00:00)
14 X-COM: Apocalypse Jul 15, 1997 $4.9977% (90%)500,000 .. 1,000,0000%00:00 (00:00)
15 Silent Storm Gold Edition Sep 9, 2004 $9.9974% (89%/83%)200,000 .. 500,0000%00:00 (00:00)
16 Archon Classic Nov 2, 2010 $9.9974% (89%)20,000 .. 50,0000%00:00 (00:00)
17 Cosmic Trip May 24, 2017 $19.9971% (88%)0 .. 20,0000%00:00 (00:00)
18 Rush for Berlin Gold Oct 29, 2009 $4.9968% (87%/76%)20,000 .. 50,0000%00:00 (00:00)
19 Sang-Froid - Tales of Werewolves Apr 5, 2013 Free68% (87%/79%)200,000 .. 500,0000%00:00 (00:00)
20 Pang Adventures Apr 18, 2016 $9.9968% (87%)20,000 .. 50,0000%00:00 (00:00)
21 Supreme Commander Feb 20, 2007 $12.9966% (86%/86%)500,000 .. 1,000,0000.6%00:50 (00:33)
22 Ground Control Anthology Jul 8, 2015 $4.9966% (86%/86%)0 .. 20,0000%00:00 (00:00)
23 Civilization IV: Warlords Apr 6, 2007 $4.9966% (86%/84%)1,000,000 .. 2,000,0000%00:00 (00:00)
24 Out of Ammo Sep 14, 2016 $14.9966% (86%)20,000 .. 50,0000%00:00 (00:00)
25 Joint Task Force Sep 12, 2006 $4.9963% (85%/68%)20,000 .. 50,0000%00:00 (00:00)
26 Magnifico Dec 2, 2014 $4.9963% (85%)50,000 .. 100,0000%00:00 (00:00)
27 Rooks Keep Dec 5, 2014 $7.9961% (84%)20,000 .. 50,0000%00:00 (00:00)
28 Cossacks: Art of War Mar 31, 2002 $4.9961% (84%/74%)50,000 .. 100,0000%00:00 (00:00)
29 Battle Academy Aug 4, 2010 $14.9961% (84%)20,000 .. 50,0001.27%11:38 (03:52)
30 Commandos: Beyond the Call of Duty Apr 7, 1999 $4.9958% (83%)500,000 .. 1,000,0000%00:00 (00:00)
31 Space Empires IV Deluxe Feb 7, 2006 $9.9958% (83%/79%)50,000 .. 100,0000%00:00 (00:00)
32 Eador: Genesis Aug 7, 2009 $5.9958% (83%)50,000 .. 100,0000%00:00 (00:00)
33 Conflict Desert Storm Sep 13, 2002 $6.9956% (82%/56%)50,000 .. 100,0001.33%00:01 (00:00)
34 Seven Kingdoms 2 HD Feb 4, 2015 $9.9956% (82%)20,000 .. 50,0000%00:00 (00:00)
35 Ground Control II: Operation Exodus Jul 8, 2015 $4.9956% (82%/80%)20,000 .. 50,0003.03%00:06 (00:02)
36 Microgons Mar 27, 2017 FreeN/A (N/A)0 .. 20,0000%00:00 (00:00)
37 Fantasy Wars Aug 6, 2010 $4.9954% (81%/67%)50,000 .. 100,0000%00:00 (00:00)
38 Men of War: Red Tide Nov 1, 2009 $4.9954% (81%/77%)200,000 .. 500,0000.33%00:08 (00:02)
39 Tiny Troopers Aug 24, 2012 $4.9954% (81%/57%)100,000 .. 200,0001.02%00:36 (00:23)
40 Wyrmsun May 22, 2015 Free54% (81%)20,000 .. 50,0000%00:00 (00:00)
41 SHOGUN: Total War - Collection Jun 25, 2015 $9.9954% (81%)100,000 .. 200,0000.45%00:04 (00:01)
42 Dwarfs!? May 4, 2011 $9.9951% (80%)200,000 .. 500,0000.35%00:25 (00:16)
43 Gunman Taco Truck Jan 28, 2017 $1.9951% (80%)0 .. 20,0000%00:00 (00:00)
44 Perimeter May 21, 2004 $3.9951% (80%/77%)20,000 .. 50,0000%00:00 (00:00)
45 Conquest of Elysium 3 Oct 24, 2012 $9.9951% (80%)20,000 .. 50,0000%00:00 (00:00)
46 Locoland May 28, 2015 $4.9951% (80%)0 .. 20,0000%00:00 (00:00)
47 ROD: Revolt Of Defense Aug 12, 2016 $0.9951% (80%)20,000 .. 50,0000%00:00 (00:00)
48 Legends of Callasia Jun 10, 2016 Free51% (80%)50,000 .. 100,0001.39%00:01 (00:00)
49 Supreme Ruler 2020 Gold Jun 17, 2008 $9.9951% (80%/65%)50,000 .. 100,0000%00:00 (00:00)
50 Disciples Sacred Lands Gold Oct 4, 1999 $7.9951% (80%)50,000 .. 100,0000%00:00 (00:00)
51 Demolition Inc. Sep 19, 2011 $5.9949% (79%)50,000 .. 100,0000%00:00 (00:00)
52 Dominions 3: The Awakening Sep 10, 2013 $4.9949% (79%/82%)0 .. 20,0000%00:00 (00:00)
53 Fate of the World Feb 28, 2011 $9.9949% (79%/70%)50,000 .. 100,0000%00:00 (00:00)
54 Harvest: Massive Encounter Mar 5, 2008 $7.9949% (79%)20,000 .. 50,0002%00:52 (00:17)
55 Disciples II: Rise of the Elves Jul 6, 2006 $6.9949% (79%/80%)100,000 .. 200,0000%00:00 (00:00)
56 Cluck Yegger in Escape From The Planet of The Poultroid Nov 9, 2015 $2.99N/A (N/A)0 .. 20,0000%00:00 (00:00)
57 Reprisal Universe Sep 15, 2014 $6.9947% (78%)20,000 .. 50,0000%00:00 (00:00)
58 Heroes of Might & Magic V: Hammers of Fate Nov 14, 2006 $2.4947% (78%/66%)200,000 .. 500,0000%00:00 (00:00)
59 Age of Wonders Oct 2010 $5.9947% (78%)100,000 .. 200,0000%00:00 (00:00)
60 Age of Wonders II: The Wizard's Throne Oct 2010 $9.9945% (77%/86%)50,000 .. 100,0000%00:00 (00:00)
61 Starscape Mar 27, 2003 $7.9945% (77%)20,000 .. 50,0000%00:00 (00:00)
62 Imperium Romanum Gold Edition Oct 30, 2008 $9.9945% (77%/63%)100,000 .. 200,0000%00:00 (00:00)
63 ORB Nov 8, 2002 $4.9945% (77%)20,000 .. 50,0000%00:00 (00:00)
64 Dangerous Waters Feb 7, 2006 $14.9945% (77%/82%)50,000 .. 100,0000%00:00 (00:00)
65 Praetorians Mar 10, 2003 $4.9943% (76%/78%)100,000 .. 200,0000.85%07:56 (02:38)
66 Honey Rose: Underdog Fighter Extraordinaire Sep 29, 2016 FreeN/A (N/A)20,000 .. 50,0000%00:00 (00:00)
67 Cue Club 2: Pool & Snooker Mar 7, 2016 $9.4943% (76%)0 .. 20,0000%00:00 (00:00)
68 A Healer Only Lives Twice Jun 2, 2016 $4.9943% (76%)0 .. 20,00012.5%01:17 (00:25)
69 Fritz for Fun 13 Dec 10, 2014 $19.99N/A (N/A)0 .. 20,0000%00:00 (00:00)
70 Civil War II Sep 17, 2013 $39.9941% (75%)0 .. 20,0000%00:00 (00:00)
71 Vegas: Make It Big Dec 21, 2006 $4.9941% (75%)20,000 .. 50,0000%00:00 (00:00)
72 WARSHIFT Oct 12, 2016 $12.9941% (75%)20,000 .. 50,0000%00:00 (00:00)
73 World War I Apr 9, 2015 $4.9941% (75%)20,000 .. 50,0000%00:00 (00:00)
74 Cubemen Mar 16, 2012 $3.9941% (75%/74%)100,000 .. 200,0000%00:00 (00:00)
75 Perimeter: Emperor's Testament May 22, 2014 $3.99N/A (N/A/72%)20,000 .. 50,0000%00:00 (00:00)
76 688(I) Hunter/Killer Jul 4, 1997 $9.9940% (74%)20,000 .. 50,0000%00:00 (00:00)
77 TableTop Soccer Apr 22, 2016 $0.9940% (74%)0 .. 20,0000%00:00 (00:00)
78 Cossacks: European Wars Apr 24, 2001 $4.9938% (73%/74%)50,000 .. 100,0000.83%04:08 (01:22)
79 Desperados: Wanted Dead or Alive Jul 23, 2001 $4.9938% (73%/78%)100,000 .. 200,0001.37%00:10 (00:06)
80 AirMech Command Mar 8, 2017 $19.9938% (73%)0 .. 20,0000%00:00 (00:00)
81 Battlestations: Midway Jan 30, 2007 $6.9938% (73%/76%)200,000 .. 500,0000%00:00 (00:00)
82 Grand Ages: Rome Mar 20, 2009 $9.9936% (72%/72%)200,000 .. 500,0000.44%00:01 (00:00)
83 Children of Orc Dec 20, 2016 Free36% (72%)20,000 .. 50,0000%00:00 (00:00)
84 Wildlife Park 2 - Crazy Zoo Mar 30, 2007 $3.99N/A (N/A)0 .. 20,0000%00:00 (00:00)
85 The Guild Gold Edition Nov 18, 2002 $9.9933% (70%/82%)100,000 .. 200,0000%00:00 (00:00)
86 War in a Box: Paper Tanks Jul 4, 2014 $4.9933% (70%)50,000 .. 100,0000%00:00 (00:00)
87 Darwinia Jul 14, 2005 $9.9933% (70%/84%)200,000 .. 500,0000%00:00 (00:00)
88 Brigade E5: New Jagged Union Oct 17, 2006 $3.9933% (70%/41%)0 .. 20,0002.13%00:03 (00:01)
89 Rome: Total War - Alexander Jun 26, 2006 $4.9933% (70%/79%)500,000 .. 1,000,0000.16%35:23 (11:47)
90 UFO: Aftershock Oct 21, 2005 $3.9931% (69%)20,000 .. 50,0000%00:00 (00:00)
91 The Nightmare Cooperative Jul 16, 2014 $4.9931% (69%)50,000 .. 100,0000%00:00 (00:00)
92 Cthulhu Realms Jul 1, 2016 Free30% (68%)50,000 .. 100,0000%00:00 (00:00)
93 Void Destroyer Jan 20, 2015 $9.9930% (68%)50,000 .. 100,0000%00:00 (00:00)
94 Across the Rhine Nov 6, 2014 $6.99N/A (N/A)20,000 .. 50,0000%00:00 (00:00)
95 Survivor Squad: Gauntlets Nov 16, 2015 $4.9930% (68%)20,000 .. 50,0000%00:00 (00:00)
96 Legions of Ashworld Jul 4, 2014 $4.99N/A (N/A)0 .. 20,0000%00:00 (00:00)
97 American Conquest: Fight Back Sep 30, 2003 $4.9930% (68%/66%)50,000 .. 100,0000.92%00:02 (00:00)
98 Sub Command Oct 1, 2001 $9.99N/A (N/A/84%)20,000 .. 50,0000%00:00 (00:00)
99 American Conquest Feb 7, 2003 $4.9928% (67%/76%)50,000 .. 100,0000%00:00 (00:00)
100 Nomad Fleet Apr 19, 2016 $9.9928% (67%)20,000 .. 50,0000%00:00 (00:00)
101 Alea Jacta Est Nov 4, 2014 $24.9927% (66%)20,000 .. 50,0000%00:00 (00:00)
102 Europa Universalis: Rome - Gold Edition Nov 19, 2008 $9.9927% (66%/79%)50,000 .. 100,0000%00:00 (00:00)
103 Men of War: Condemned Heroes Apr 12, 2012 $7.9925% (65%/57%)100,000 .. 200,0000%00:00 (00:00)
104 Marauder Sep 10, 2009 $9.9925% (65%)50,000 .. 100,0000%00:00 (00:00)
105 Planets Under Attack Sep 27, 2012 $9.9925% (65%)500,000 .. 1,000,0000.56%03:21 (04:40)
106 Hunters Of The Dead Sep 4, 2014 $4.9924% (64%)20,000 .. 50,0000%00:00 (00:00)
107 The Seven Years War (1756-1763) Oct 30, 2015 $19.9924% (64%)0 .. 20,0000%00:00 (00:00)
108 Port Royale 2 Apr 30, 2004 $0.9923% (63%/75%)50,000 .. 100,0000%00:00 (00:00)
109 Full Spectrum Warrior: Ten Hammers Mar 27, 2006 $9.9923% (63%/70%)100,000 .. 200,0000%00:00 (00:00)
110 UFO: Afterlight Feb 8, 2007 $6.9923% (63%/71%)200,000 .. 500,0000%00:00 (00:00)
111 Maelstrom: The Battle for Earth Begins Feb 20, 2007 $4.9922% (62%/58%)20,000 .. 50,0000%00:00 (00:00)
112 Crusader Kings Complete Feb 14, 2012 $9.9922% (62%/73%)50,000 .. 100,0000%00:00 (00:00)
113 Rise: Battle Lines Nov 17, 2015 $1.9922% (62%)0 .. 20,0000%00:00 (00:00)
114 Crown and Council Apr 22, 2016 Free22% (62%)100,000 .. 200,0000%00:00 (00:00)
115 Haegemonia: The Solon Heritage May 1, 2014 $4.9922% (62%)50,000 .. 100,0000%00:00 (00:00)
116 To End All Wars Aug 29, 2014 $39.9922% (62%/71%)0 .. 20,0000%00:00 (00:00)
117 BattleLore: Command Mar 31, 2015 $6.9921% (61%)0 .. 20,0000%00:00 (00:00)
118 Legions of Steel Jul 16, 2015 $19.99N/A (N/A/64%)0 .. 20,0000%00:00 (00:00)
119 Robin Hood: The Legend of Sherwood Nov 1, 2002 $7.9921% (61%/80%)100,000 .. 200,0000%00:00 (00:00)
120 Hydrophobia: Prophecy May 9, 2011 $4.9920% (60%/64%)200,000 .. 500,0000%00:00 (00:00)
121 Quarantine Feb 9, 2017 $9.9918% (59%)0 .. 20,0000%00:00 (00:00)
122 Steam 360 Video Player May 10, 2017 Free18% (59%)50,000 .. 100,0000%00:00 (00:00)
123 Codename: Panzers - Cold War Mar 10, 2009 $14.9918% (59%)20,000 .. 50,0000%00:00 (00:00)
124 Rush for Glory Jun 16, 2014 $14.9917% (58%)50,000 .. 100,0000%00:00 (00:00)
125 Sudden Strike 3 Dec 7, 2007 $5.9917% (58%)20,000 .. 50,0000%00:00 (00:00)
126 Blight of the Immortals Oct 25, 2016 FreeN/A (N/A)20,000 .. 50,0000%00:00 (00:00)
127 Achron Aug 29, 2011 $19.9917% (58%/54%)0 .. 20,0000%00:00 (00:00)
128 Crystal Rift Mar 30, 2016 $9.9917% (58%)0 .. 20,0000%00:00 (00:00)
129 9th Company: Roots Of Terror Dec 3, 2009 $9.9916% (57%)20,000 .. 50,0000%00:00 (00:00)
130 Neocolonialism Dec 1, 2014 $2.99N/A (N/A)0 .. 20,0000%00:00 (00:00)
131 Cossacks II: Battle for Europe Jun 19, 2006 $4.9915% (56%/69%)50,000 .. 100,0000%00:00 (00:00)
132 BC Kings Sep 15, 2008 $4.9914% (54%)20,000 .. 50,0000%00:00 (00:00)
133 Gratuitous Tank Battles May 17, 2012 $9.9914% (54%/69%)50,000 .. 100,0000%00:00 (00:00)
134 Earth 2140 Nov 15, 2013 $4.9914% (54%)200,000 .. 500,0000.28%22:10 (14:57)
135 Crusaders: Thy Kingdom Come Oct 8, 2009 $9.99N/A (N/A)20,000 .. 50,0000%00:00 (00:00)
136 Viking: Battle for Asgard Oct 17, 2012 $14.9913% (53%)1,000,000 .. 2,000,0000.12%00:06 (00:02)
137 X-COM: Enforcer Apr 19, 2001 $4.9913% (52%/65%)50,000 .. 100,0000%00:00 (00:00)
138 Gods vs Humans Oct 10, 2014 $4.9913% (52%)20,000 .. 50,0000%00:00 (00:00)
139 Space Trader: Merchant Marine Oct 23, 2008 $4.9913% (52%)200,000 .. 500,0000%00:00 (00:00)
140 Red Faction II Apr 9, 2003 $9.9913% (52%/64%)200,000 .. 500,0000%00:00 (00:00)
141 X-COM: Interceptor Jun 15, 1998 $4.9912% (51%)20,000 .. 50,0000%00:00 (00:00)
142 Aggression: Europe Under Fire May 10, 2007 $9.9911% (50%)50,000 .. 100,0000%00:00 (00:00)
143 Evolution RTS Apr 4, 2014 Free10% (48%)100,000 .. 200,0000%00:00 (00:00)
144 Master of Orion 3 Aug 25, 2016 $9.99N/A (N/A/64%)100,000 .. 200,0000%00:00 (00:00)
145 Hero Generations Apr 10, 2015 $5.9910% (47%)0 .. 20,0000%00:00 (00:00)
146 Hell Nov 13, 2014 $29.99N/A (N/A)0 .. 20,0000%00:00 (00:00)
147 East India Company Jul 31, 2009 $9.999% (46%/67%)50,000 .. 100,0000%00:00 (00:00)
148 Galactic Civilizations I: Ultimate Edition Aug 14, 2012 $9.999% (45%/83%)200,000 .. 500,0000%00:00 (00:00)
149 XIII Century – Gold Edition Aug 28, 2009 $4.999% (45%)50,000 .. 100,0000%00:00 (00:00)
150 Arms Dealer Mar 26, 2015 $5.999% (45%)0 .. 20,0000%00:00 (00:00)
151 Skyward Collapse May 23, 2013 $4.998% (44%/64%)100,000 .. 200,0000%00:00 (00:00)
152 Master of Magic Chess May 23, 2017 Free8% (43%)0 .. 20,0000%00:00 (00:00)
153 The Fleets of Sol Apr 1, 2016 $8.99N/A (N/A)0 .. 20,0000%00:00 (00:00)
154 Shattered Union Oct 17, 2005 $4.998% (43%/67%)20,000 .. 50,0004.35%00:03 (00:01)
155 Desperados 2: Cooper's Revenge May 2, 2006 $9.998% (43%/66%)50,000 .. 100,0000%00:00 (00:00)
156 Dungeons Feb 10, 2011 $9.998% (43%/65%)200,000 .. 500,0000%00:00 (00:00)
157 Mars 2030 Mar 11, 2016 $4.99N/A (N/A)0 .. 20,0000%00:00 (00:00)
158 Real Warfare 2: Northern Crusades Nov 18, 2011 $4.997% (42%)50,000 .. 100,0000%00:00 (00:00)
159 Ancient Space Sep 23, 2014 $19.997% (41%)20,000 .. 50,0000%00:00 (00:00)
160 Guardians of Graxia Nov 10, 2010 $4.997% (41%)50,000 .. 100,0000%00:00 (00:00)
161 Theatre of War 3: Korea Mar 24, 2011 $6.996% (40%/49%)50,000 .. 100,0000%00:00 (00:00)
162 Two Worlds II Castle Defense Jun 14, 2011 $9.996% (40%)500,000 .. 1,000,0000.53%04:31 (05:28)
163 Cossacks II: Napoleonic Wars Apr 26, 2005 $4.996% (39%/73%)50,000 .. 100,0000%00:00 (00:00)
164 Dungeons - The Dark Lord Sep 27, 2011 $19.996% (39%/72%)100,000 .. 200,0000%00:00 (00:00)
165 Sacraboar Nov 6, 2009 $2.995% (35%)20,000 .. 50,0000%00:00 (00:00)
166 Fallen: A2P Protocol Aug 14, 2015 $9.994% (34%)20,000 .. 50,0000%00:00 (00:00)
167 Disciples III - Resurrection Oct 11, 2011 $14.994% (34%/63%)100,000 .. 200,0000.52%01:30 (00:30)
168 The Game of Life Jun 10, 2013 $9.994% (33%)0 .. 20,0000%00:00 (00:00)
169 Arena Wars 2 Oct 12, 2012 $3.994% (32%)50,000 .. 100,0000%00:00 (00:00)
170 US and THEM Mar 8, 2010 $2.994% (31%)20,000 .. 50,0000%00:00 (00:00)
171 Feudalism Jun 14, 2016 $14.99N/A (N/A)0 .. 20,0000%00:00 (00:00)
172 Tiestru Aug 20, 2014 $9.99N/A (N/A)20,000 .. 50,0000%00:00 (00:00)
173 Genesis Rising Mar 20, 2007 $4.992% (23%/57%)20,000 .. 50,0000%00:00 (00:00)
174 APOX Jan 20, 2011 $14.992% (23%/48%)20,000 .. 50,0000%00:00 (00:00)
175 Perimeter 2: New Earth Feb 10, 2009 $14.992% (20%/43%)0 .. 20,0000%00:00 (00:00)
176 Ironclads: American Civil War Jan 8, 2009 $9.99N/A (N/A)20,000 .. 50,0000%00:00 (00:00)
177 Prison Tycoon 3: Lockdown Aug 1, 2007 $9.992% (17%)20,000 .. 50,0000%00:00 (00:00)
178 Tryst Sep 14, 2012 $14.99N/A (N/A/50%)0 .. 20,0000%00:00 (00:00)
179 Citadels Jul 25, 2013 $14.991% (13%/20%)20,000 .. 50,0000%00:00 (00:00)

Tags over time:

Access restricted.

This feature is only available to users with special access rights. Sorry.

If you want to proceed, you need to register or log in first and then back Steam Spy on Patreon. Look for Indie or Pro pledge.

Don't forget to use the same email as on Steam Spy!

Owners of this game also own:

Access restricted.

This feature is only available to users with special access rights. Sorry.

If you want to proceed, you need to register or log in first and then back Steam Spy on Patreon. Look for Indie or Pro pledge.

Don't forget to use the same email as on Steam Spy!

Playtime distribution:

Access restricted.

This feature is only available to users with special access rights. Sorry.

If you want to proceed, you need to register or log in first and then back Steam Spy on Patreon. Look for Indie or Pro pledge.

Don't forget to use the same email as on Steam Spy!

Playtime (2 weeks):

Access restricted.

This feature is only available to users with special access rights. Sorry.

If you want to proceed, you need to register or log in first and then back Steam Spy on Patreon. Look for Indie or Pro pledge.

Don't forget to use the same email as on Steam Spy!

User reviews:

Login required.

Please register or log in to see this information.